createdAt,value
2023-05-20T00:00:59.361Z,8.63
2023-05-20T00:03:25.888Z,8.80
2023-05-20T00:05:52.376Z,8.95
2023-05-20T00:08:18.762Z,9.23
2023-05-20T00:10:45.187Z,8.75
2023-05-20T00:13:11.528Z,8.05
2023-05-20T00:15:38.026Z,9.35
2023-05-20T00:18:04.485Z,8.50
2023-05-20T00:20:30.916Z,8.93
2023-05-20T00:22:57.307Z,8.73
2023-05-20T00:25:23.677Z,9.10
2023-05-20T00:27:50.045Z,8.23
2023-05-20T00:30:16.453Z,8.68
2023-05-20T00:32:42.866Z,8.43
2023-05-20T00:35:10.024Z,8.43
2023-05-20T00:37:36.436Z,8.60
2023-05-20T00:40:02.811Z,8.38
2023-05-20T00:42:29.212Z,8.02
2023-05-20T00:44:55.721Z,8.52
2023-05-20T00:47:22.114Z,8.70
2023-05-20T00:49:50.361Z,8.73
2023-05-20T00:52:18.123Z,8.07
2023-05-20T00:54:44.514Z,8.10
2023-05-20T00:57:10.881Z,9.30
2023-05-20T00:59:37.328Z,7.78
2023-05-20T01:02:03.721Z,8.38
2023-05-20T01:04:30.087Z,9.00
2023-05-20T01:06:56.534Z,7.70
2023-05-20T01:09:23.032Z,8.38
2023-05-20T01:11:49.430Z,8.07
2023-05-20T01:14:15.874Z,7.93
2023-05-20T01:16:42.238Z,8.00
2023-05-20T01:19:08.635Z,7.97
2023-05-20T01:21:35.125Z,8.30
2023-05-20T01:24:01.495Z,7.90
2023-05-20T01:26:27.843Z,7.55
2023-05-20T01:28:54.341Z,7.80
2023-05-20T01:31:20.935Z,7.45
2023-05-20T01:33:47.341Z,8.10
2023-05-20T01:36:13.747Z,8.25
2023-05-20T01:38:40.121Z,8.30
2023-05-20T01:41:06.466Z,8.23
2023-05-20T01:43:32.874Z,7.60
2023-05-20T01:45:59.233Z,8.88
2023-05-20T01:48:26.286Z,8.25
2023-05-20T01:50:52.689Z,8.13
2023-05-20T01:53:19.059Z,8.80
2023-05-20T01:55:45.455Z,7.85
2023-05-20T01:58:12.125Z,8.13
2023-05-20T02:00:38.577Z,8.63
2023-05-20T02:03:05.002Z,8.65
2023-05-20T02:05:31.462Z,8.75
2023-05-20T02:07:58.010Z,9.82
2023-05-20T02:10:24.370Z,9.35
2023-05-20T02:12:50.905Z,8.63
2023-05-20T02:15:17.284Z,8.88
2023-05-20T02:17:43.749Z,8.98
2023-05-20T02:20:10.366Z,9.27
2023-05-20T02:22:36.773Z,10.05
2023-05-20T02:25:03.334Z,9.90
2023-05-20T02:27:29.768Z,10.07
2023-05-20T02:29:56.124Z,10.05
2023-05-20T02:32:22.501Z,9.77
2023-05-20T02:34:48.931Z,10.55
2023-05-20T02:37:15.294Z,10.18
2023-05-20T02:39:41.719Z,11.20
2023-05-20T02:42:08.143Z,10.85
2023-05-20T02:44:34.493Z,11.07
2023-05-20T02:47:01.114Z,11.05
2023-05-20T02:49:27.545Z,10.40
2023-05-20T02:51:54.755Z,10.95
2023-05-20T02:54:21.126Z,11.57
2023-05-20T02:56:47.569Z,11.18
2023-05-20T02:59:14.109Z,11.30
2023-05-20T03:01:40.589Z,11.95
2023-05-20T03:04:07.093Z,11.27
2023-05-20T03:06:33.461Z,11.75
2023-05-20T03:08:59.833Z,11.90
2023-05-20T03:11:26.272Z,12.13
2023-05-20T03:13:52.660Z,12.27
2023-05-20T03:16:19.054Z,12.48
2023-05-20T03:18:45.602Z,12.05
2023-05-20T03:21:12.955Z,12.88
2023-05-20T03:23:39.642Z,11.70
2023-05-20T03:26:07.424Z,12.85
2023-05-20T03:28:34.139Z,12.73
2023-05-20T03:31:00.526Z,11.80
2023-05-20T03:33:27.077Z,12.50
2023-05-20T03:35:54.033Z,12.68
2023-05-20T03:38:20.533Z,12.10
2023-05-20T03:40:46.949Z,12.20
2023-05-20T03:43:13.319Z,12.38
2023-05-20T03:45:39.723Z,12.63
2023-05-20T03:48:07.435Z,13.10
2023-05-20T03:50:35.131Z,12.45
2023-05-20T03:53:01.533Z,13.45
2023-05-20T03:55:33.592Z,13.13
2023-05-20T03:58:00.248Z,12.48
2023-05-20T04:00:26.784Z,12.10
2023-05-20T04:02:53.485Z,12.75
2023-05-20T04:05:21.112Z,11.70
2023-05-20T04:07:47.738Z,12.07
2023-05-20T04:10:14.446Z,11.70
2023-05-20T04:12:40.886Z,12.20
2023-05-20T04:15:07.312Z,12.27
2023-05-20T04:17:49.638Z,12.32
2023-05-20T04:20:16.134Z,12.43
2023-05-20T04:22:42.681Z,12.00
2023-05-20T04:25:09.189Z,12.30
2023-05-20T04:27:35.604Z,12.38
2023-05-20T04:30:02.146Z,12.48
2023-05-20T04:32:31.918Z,12.95
2023-05-20T04:34:58.438Z,12.90
2023-05-20T04:37:25.004Z,12.80
2023-05-20T04:39:51.548Z,12.27
2023-05-20T04:42:18.329Z,12.88
2023-05-20T04:44:44.675Z,13.02
2023-05-20T04:47:11.108Z,11.80
2023-05-20T04:49:38.133Z,12.77
2023-05-20T04:52:04.502Z,12.82
2023-05-20T04:54:30.914Z,12.88
2023-05-20T04:56:57.455Z,13.38
2023-05-20T04:59:23.826Z,13.80
2023-05-20T05:01:50.519Z,13.23
2023-05-20T05:04:16.953Z,13.07
2023-05-20T05:06:43.341Z,13.23
2023-05-20T05:09:10.318Z,12.75
2023-05-20T05:11:40.569Z,12.10
2023-05-20T05:14:07.680Z,13.88
2023-05-20T05:16:34.812Z,13.35
2023-05-20T05:19:01.354Z,12.77
2023-05-20T05:21:31.085Z,12.43
2023-05-20T05:23:58.395Z,12.15
2023-05-20T05:26:24.894Z,12.63
2023-05-20T05:28:51.452Z,12.25
2023-05-20T05:31:17.892Z,12.50
2023-05-20T05:33:44.261Z,12.50
2023-05-20T05:36:10.654Z,12.48
2023-05-20T05:38:37.139Z,13.18
2023-05-20T05:41:03.644Z,12.65
2023-05-20T05:43:30.185Z,12.60
2023-05-20T05:45:57.271Z,12.85
2023-05-20T05:48:24.504Z,12.63
2023-05-20T05:50:50.898Z,11.73
2023-05-20T05:53:18.802Z,13.57
2023-05-20T05:55:47.702Z,12.38
2023-05-20T05:58:14.899Z,12.77
2023-05-20T06:00:41.674Z,12.82
2023-05-20T06:03:08.166Z,12.68
2023-05-20T06:05:36.872Z,12.63
2023-05-20T06:08:03.488Z,12.73
2023-05-20T06:10:32.358Z,13.32
2023-05-20T06:12:59.312Z,12.90
2023-05-20T06:15:26.251Z,13.38
2023-05-20T06:17:52.703Z,13.27
2023-05-20T06:20:19.726Z,12.60
2023-05-20T06:22:46.193Z,12.60
2023-05-20T06:25:12.694Z,12.70
2023-05-20T06:27:39.861Z,12.88
2023-05-20T06:30:08.692Z,12.93
2023-05-20T06:32:35.197Z,12.23
2023-05-20T06:35:01.759Z,12.25
2023-05-20T06:37:28.199Z,12.65
2023-05-20T06:39:54.566Z,13.18
2023-05-20T06:42:20.957Z,11.98
2023-05-20T06:44:58.879Z,12.50
2023-05-20T06:47:42.167Z,11.32
2023-05-20T06:50:09.348Z,11.85
2023-05-20T06:52:35.793Z,11.98
2023-05-20T06:55:02.438Z,10.52
2023-05-20T06:57:29.252Z,10.18
2023-05-20T06:59:55.778Z,10.70
2023-05-20T07:02:22.482Z,10.25
2023-05-20T07:04:49.134Z,10.45
2023-05-20T07:07:17.252Z,9.60
2023-05-20T07:09:44.844Z,9.95
2023-05-20T07:12:11.326Z,9.55
2023-05-20T07:14:37.859Z,10.30
2023-05-20T07:17:04.933Z,9.13
2023-05-20T07:19:32.109Z,9.75
2023-05-20T07:21:58.571Z,9.43
2023-05-20T07:24:40.582Z,10.40
2023-05-20T07:27:07.441Z,10.68
2023-05-20T07:29:34.673Z,10.13
2023-05-20T07:32:01.286Z,9.85
2023-05-20T07:34:27.964Z,10.82
2023-05-20T07:36:54.449Z,11.23
2023-05-20T07:39:21.381Z,12.90
2023-05-20T07:41:47.746Z,12.43
2023-05-20T07:44:14.140Z,12.70
2023-05-20T07:46:44.054Z,10.95
2023-05-20T07:49:11.111Z,10.38
2023-05-20T07:51:38.933Z,9.90
2023-05-20T07:54:05.653Z,10.63
2023-05-20T07:56:32.097Z,10.10
2023-05-20T07:58:58.791Z,10.43
2023-05-20T08:01:28.779Z,9.18
2023-05-20T08:03:55.418Z,9.13
2023-05-20T08:06:23.862Z,11.68
2023-05-20T08:08:50.393Z,10.57
2023-05-20T08:11:23.486Z,10.38
2023-05-20T08:13:49.838Z,10.18
2023-05-20T08:16:16.966Z,10.43
2023-05-20T08:18:45.028Z,9.93
2023-05-20T08:21:12.424Z,9.90
2023-05-20T08:23:40.586Z,10.07
2023-05-20T08:26:07.419Z,9.25
2023-05-20T08:28:35.263Z,9.77
2023-05-20T08:31:01.924Z,8.82
2023-05-20T08:33:29.949Z,8.50
2023-05-20T08:35:56.320Z,8.45
2023-05-20T08:38:22.747Z,8.63
2023-05-20T08:40:49.601Z,8.20
2023-05-20T08:43:16.024Z,8.38
2023-05-20T08:45:42.474Z,7.65
2023-05-20T08:48:13.761Z,7.03
2023-05-20T08:50:40.297Z,7.68
2023-05-20T08:53:06.715Z,7.53
2023-05-20T08:55:33.334Z,8.10
2023-05-20T08:57:59.824Z,7.70
2023-05-20T09:00:26.274Z,7.38
2023-05-20T09:02:52.785Z,7.28
2023-05-20T09:05:19.294Z,6.88
2023-05-20T09:07:45.788Z,6.82
2023-05-20T09:10:12.149Z,7.55
2023-05-20T09:12:38.518Z,7.35
2023-05-20T09:15:04.932Z,6.53
2023-05-20T09:17:31.317Z,7.18
2023-05-20T09:19:57.685Z,7.00
2023-05-20T09:22:24.112Z,6.75
2023-05-20T09:24:50.490Z,6.97
2023-05-20T09:27:16.844Z,6.57
2023-05-20T09:29:43.256Z,6.78
2023-05-20T09:32:09.664Z,7.32
2023-05-20T09:34:36.072Z,7.38
2023-05-20T09:37:02.481Z,7.38
2023-05-20T09:39:28.850Z,7.10
2023-05-20T09:41:55.229Z,7.35
2023-05-20T09:44:21.646Z,7.45
2023-05-20T09:46:47.998Z,7.60
2023-05-20T09:49:14.340Z,7.60
2023-05-20T09:51:40.779Z,8.32
2023-05-20T09:54:07.123Z,8.05
2023-05-20T09:56:33.517Z,8.40
2023-05-20T09:58:59.952Z,7.72
2023-05-20T10:01:26.330Z,7.88
2023-05-20T10:03:52.771Z,8.13
2023-05-20T10:06:19.265Z,8.23
2023-05-20T10:08:45.604Z,8.63
2023-05-20T10:11:11.958Z,8.95
2023-05-20T10:13:38.383Z,8.55
2023-05-20T10:16:04.833Z,9.10
2023-05-20T10:18:31.258Z,8.43
2023-05-20T10:20:57.661Z,9.15
2023-05-20T10:23:24.015Z,9.07
2023-05-20T10:25:50.448Z,8.80
2023-05-20T10:28:16.882Z,8.63
2023-05-20T10:30:44.454Z,9.38
2023-05-20T10:33:10.995Z,8.73
2023-05-20T10:35:37.554Z,8.52
2023-05-20T10:38:03.912Z,8.77
2023-05-20T10:40:30.278Z,8.40
2023-05-20T10:42:56.683Z,8.77
2023-05-20T10:45:23.032Z,8.85
2023-05-20T10:47:49.453Z,8.88
2023-05-20T10:50:15.913Z,8.80
2023-05-20T10:52:42.291Z,8.93
2023-05-20T10:55:08.643Z,9.13
2023-05-20T10:57:35.059Z,9.40
2023-05-20T11:00:01.521Z,9.05
2023-05-20T11:02:27.975Z,8.15
2023-05-20T11:04:54.416Z,8.70
2023-05-20T11:07:20.764Z,8.68
2023-05-20T11:09:47.125Z,9.00
2023-05-20T11:12:14.311Z,8.50
2023-05-20T11:14:41.459Z,8.85
2023-05-20T11:17:07.842Z,9.00
2023-05-20T11:19:34.300Z,9.80
2023-05-20T11:22:00.681Z,9.40
2023-05-20T11:24:27.092Z,9.35
2023-05-20T11:26:53.532Z,9.43
2023-05-20T11:29:19.908Z,9.45
2023-05-20T11:31:46.311Z,10.07
2023-05-20T11:34:12.794Z,9.32
2023-05-20T11:36:39.169Z,9.13
2023-05-20T11:39:05.540Z,9.10
2023-05-20T11:41:31.965Z,9.23
2023-05-20T11:43:58.315Z,9.55
2023-05-20T11:46:24.773Z,10.30
2023-05-20T11:48:51.182Z,10.18
2023-05-20T11:51:17.555Z,10.25
2023-05-20T11:53:43.918Z,10.13
2023-05-20T11:56:10.337Z,10.90
2023-05-20T11:58:36.694Z,10.05
2023-05-20T12:01:17.945Z,10.48
2023-05-20T12:03:47.963Z,10.52
2023-05-20T12:06:14.486Z,10.82
2023-05-20T12:08:40.849Z,10.88
2023-05-20T12:11:07.273Z,10.98
2023-05-20T12:13:35.254Z,10.88
2023-05-20T12:16:01.998Z,10.98
2023-05-20T12:18:28.421Z,11.43
2023-05-20T12:20:54.782Z,11.30
2023-05-20T12:23:21.136Z,11.63
2023-05-20T12:25:47.568Z,11.32
2023-05-20T12:28:13.930Z,10.68
2023-05-20T12:30:40.432Z,11.45
2023-05-20T12:33:06.906Z,11.40
2023-05-20T12:35:33.313Z,11.60
2023-05-20T12:37:59.687Z,11.10
2023-05-20T12:40:26.095Z,12.27
2023-05-20T12:42:52.525Z,12.07
2023-05-20T12:45:18.902Z,11.05
2023-05-20T12:47:45.354Z,12.00
2023-05-20T12:50:11.717Z,12.48
2023-05-20T12:52:38.109Z,11.90
2023-05-20T12:55:04.517Z,12.02
2023-05-20T12:57:30.862Z,12.15
2023-05-20T12:59:57.216Z,12.48
2023-05-20T13:02:23.763Z,11.77
2023-05-20T13:04:50.232Z,12.05
2023-05-20T13:07:16.663Z,11.48
2023-05-20T13:09:43.086Z,12.27
2023-05-20T13:12:09.512Z,11.75
2023-05-20T13:14:35.885Z,12.13
2023-05-20T13:17:02.383Z,11.75
2023-05-20T13:19:28.906Z,11.73
2023-05-20T13:21:55.305Z,12.15
2023-05-20T13:24:21.701Z,11.65
2023-05-20T13:26:48.092Z,12.10
2023-05-20T13:29:14.450Z,11.38
2023-05-20T13:31:40.877Z,12.13
2023-05-20T13:34:07.221Z,11.55
2023-05-20T13:36:33.581Z,11.50
2023-05-20T13:39:00.091Z,11.85
2023-05-20T13:41:26.602Z,11.35
2023-05-20T13:43:53.019Z,12.07
2023-05-20T13:46:19.421Z,12.00
2023-05-20T13:48:45.792Z,12.40
2023-05-20T13:51:12.162Z,12.43
2023-05-20T13:53:38.581Z,12.27
2023-05-20T13:56:04.975Z,12.15
2023-05-20T13:58:31.369Z,12.30
2023-05-20T14:00:57.812Z,12.55
2023-05-20T14:03:24.226Z,12.02
2023-05-20T14:05:50.674Z,13.10
2023-05-20T14:08:17.064Z,11.98
2023-05-20T14:10:43.405Z,12.70
2023-05-20T14:13:09.765Z,12.15
2023-05-20T14:15:36.302Z,13.18
2023-05-20T14:18:02.768Z,11.73
2023-05-20T14:20:29.204Z,12.25
2023-05-20T14:22:55.625Z,12.90
2023-05-20T14:25:22.007Z,12.88
2023-05-20T14:27:48.355Z,12.75
2023-05-20T14:30:14.759Z,12.90
2023-05-20T14:32:41.208Z,12.73
2023-05-20T14:35:07.582Z,12.45
2023-05-20T14:37:33.974Z,12.68
2023-05-20T14:40:00.342Z,12.75
2023-05-20T14:42:27.989Z,12.32
2023-05-20T14:44:54.397Z,12.88
2023-05-20T14:47:20.918Z,13.18
2023-05-20T14:49:47.286Z,13.60
2023-05-20T14:52:13.691Z,13.77
2023-05-20T14:54:40.064Z,12.98
2023-05-20T14:57:06.418Z,13.07
2023-05-20T14:59:32.833Z,13.05
2023-05-20T15:01:59.227Z,12.77
2023-05-20T15:04:25.598Z,13.15
2023-05-20T15:06:52.001Z,13.18
2023-05-20T15:09:18.344Z,13.27
2023-05-20T15:11:44.694Z,13.32
2023-05-20T15:14:11.094Z,13.75
2023-05-20T15:16:37.463Z,13.07
2023-05-20T15:19:03.901Z,13.85
2023-05-20T15:21:30.342Z,13.43
2023-05-20T15:23:56.706Z,13.07
2023-05-20T15:26:23.186Z,13.27
2023-05-20T15:28:49.606Z,12.82
2023-05-20T15:31:15.983Z,13.13
2023-05-20T15:33:42.384Z,12.98
2023-05-20T15:36:08.971Z,13.48
2023-05-20T15:38:35.327Z,12.32
2023-05-20T15:41:01.719Z,12.68
2023-05-20T15:43:28.130Z,13.38
2023-05-20T15:45:54.523Z,13.13
2023-05-20T15:48:20.898Z,13.00
2023-05-20T15:50:47.308Z,13.10
2023-05-20T15:53:13.675Z,12.68
2023-05-20T15:55:40.464Z,13.07
2023-05-20T15:58:07.812Z,13.40
2023-05-20T16:00:34.400Z,12.63
2023-05-20T16:03:01.098Z,12.25
2023-05-20T16:05:27.624Z,13.10
2023-05-20T16:07:53.989Z,13.23
2023-05-20T16:10:20.337Z,12.75
2023-05-20T16:12:46.742Z,11.88
2023-05-20T16:15:13.092Z,13.15
2023-05-20T16:17:39.497Z,11.88
2023-05-20T16:20:05.902Z,12.15
2023-05-20T16:22:33.864Z,12.55
2023-05-20T16:25:01.437Z,12.00
2023-05-20T16:27:27.841Z,12.13
2023-05-20T16:29:54.202Z,12.00
2023-05-20T16:32:20.542Z,12.52
2023-05-20T16:34:46.954Z,12.60
2023-05-20T16:37:13.320Z,12.48
2023-05-20T16:39:39.694Z,12.13
2023-05-20T16:42:06.103Z,12.77
2023-05-20T16:44:32.462Z,12.20
2023-05-20T16:46:58.815Z,11.93
2023-05-20T16:49:25.237Z,12.20
2023-05-20T16:51:51.603Z,11.80
2023-05-20T16:54:17.978Z,11.82
2023-05-20T16:56:44.370Z,12.02
2023-05-20T16:59:10.724Z,11.55
2023-05-20T17:01:37.149Z,11.52
2023-05-20T17:04:03.960Z,11.38
2023-05-20T17:06:30.316Z,11.70
2023-05-20T17:08:56.661Z,11.43
2023-05-20T17:11:23.055Z,11.13
2023-05-20T17:13:49.396Z,11.60
2023-05-20T17:16:15.782Z,11.40
2023-05-20T17:18:42.207Z,11.80
2023-05-20T17:21:08.573Z,11.38
2023-05-20T17:23:34.925Z,11.75
2023-05-20T17:26:01.343Z,11.15
2023-05-20T17:28:27.780Z,11.40
2023-05-20T17:30:54.187Z,10.95
2023-05-20T17:33:20.776Z,10.98
2023-05-20T17:35:47.333Z,10.95
2023-05-20T17:38:13.699Z,11.23
2023-05-20T17:40:40.098Z,10.68
2023-05-20T17:43:06.461Z,10.73
2023-05-20T17:45:32.856Z,10.68
2023-05-20T17:47:59.347Z,10.80
2023-05-20T17:50:25.891Z,10.70
2023-05-20T17:52:52.239Z,10.85
2023-05-20T17:55:18.694Z,10.25
2023-05-20T17:57:45.052Z,11.38
2023-05-20T18:00:11.420Z,10.27
2023-05-20T18:02:40.471Z,10.40
2023-05-20T18:05:06.854Z,10.80
2023-05-20T18:07:33.221Z,10.32
2023-05-20T18:09:59.620Z,9.88
2023-05-20T18:12:25.976Z,10.10
2023-05-20T18:14:52.330Z,10.70
2023-05-20T18:17:18.772Z,10.07
2023-05-20T18:19:45.162Z,10.07
2023-05-20T18:22:11.520Z,9.77
2023-05-20T18:24:37.941Z,10.18
2023-05-20T18:27:04.317Z,9.35
2023-05-20T18:29:30.679Z,9.98
2023-05-20T18:31:57.146Z,10.20
2023-05-20T18:34:23.527Z,10.07
2023-05-20T18:36:49.899Z,9.57
2023-05-20T18:39:16.306Z,9.60
2023-05-20T18:41:47.160Z,9.73
2023-05-20T18:44:13.942Z,9.43
2023-05-20T18:46:40.339Z,9.32
2023-05-20T18:49:06.731Z,9.57
2023-05-20T18:51:33.080Z,9.68
2023-05-20T18:53:59.487Z,9.15
2023-05-20T18:56:25.856Z,9.45
2023-05-20T18:58:52.317Z,9.40
2023-05-20T19:01:18.819Z,8.75
2023-05-20T19:03:45.199Z,9.10
2023-05-20T19:06:11.562Z,9.30
2023-05-20T19:08:38.058Z,9.30
2023-05-20T19:11:04.636Z,8.80
2023-05-20T19:13:30.985Z,8.95
2023-05-20T19:15:57.361Z,9.45
2023-05-20T19:18:23.771Z,9.15
2023-05-20T19:20:50.115Z,9.63
2023-05-20T19:23:16.527Z,9.82
2023-05-20T19:25:42.884Z,10.00
2023-05-20T19:28:09.231Z,9.27
2023-05-20T19:30:35.734Z,9.23
2023-05-20T19:33:02.128Z,9.32
2023-05-20T19:35:28.530Z,9.52
2023-05-20T19:37:54.994Z,9.68
2023-05-20T19:40:21.338Z,9.63
2023-05-20T19:42:47.683Z,9.75
2023-05-20T19:45:14.157Z,9.80
2023-05-20T19:47:40.517Z,9.10
2023-05-20T19:50:06.919Z,9.07
2023-05-20T19:52:33.330Z,9.23
2023-05-20T19:54:59.732Z,8.73
2023-05-20T19:57:26.088Z,8.85
2023-05-20T19:59:53.710Z,9.00
2023-05-20T20:02:20.295Z,8.85
2023-05-20T20:04:46.653Z,8.77
2023-05-20T20:07:13.066Z,8.90
2023-05-20T20:09:39.438Z,9.23
2023-05-20T20:12:05.785Z,8.90
2023-05-20T20:14:32.178Z,9.30
2023-05-20T20:16:58.543Z,9.23
2023-05-20T20:19:24.966Z,9.30
2023-05-20T20:21:51.405Z,8.57
2023-05-20T20:24:17.751Z,9.00
2023-05-20T20:26:44.148Z,8.75
2023-05-20T20:29:10.551Z,9.13
2023-05-20T20:31:36.944Z,8.27
2023-05-20T20:34:03.356Z,9.18
2023-05-20T20:36:29.791Z,8.88
2023-05-20T20:38:56.154Z,9.05
2023-05-20T20:41:22.509Z,9.00
2023-05-20T20:43:48.912Z,8.85
2023-05-20T20:46:15.281Z,8.98
2023-05-20T20:48:41.744Z,8.43
2023-05-20T20:51:08.228Z,8.88
2023-05-20T20:53:34.603Z,8.93
2023-05-20T20:56:00.982Z,8.73
2023-05-20T20:58:27.404Z,8.38
2023-05-20T21:00:53.776Z,8.35
2023-05-20T21:03:20.130Z,8.77
2023-05-20T21:05:46.615Z,8.73
2023-05-20T21:08:13.122Z,9.20
2023-05-20T21:10:39.648Z,8.60
2023-05-20T21:13:06.075Z,9.07
2023-05-20T21:15:32.480Z,8.32
2023-05-20T21:17:58.922Z,8.10
2023-05-20T21:20:25.376Z,8.70
2023-05-20T21:22:51.738Z,8.27
2023-05-20T21:25:18.112Z,8.13
2023-05-20T21:27:44.526Z,9.00
2023-05-20T21:30:10.893Z,8.50
2023-05-20T21:32:37.282Z,8.63
2023-05-20T21:35:03.696Z,8.65
2023-05-20T21:37:30.058Z,8.35
2023-05-20T21:39:56.430Z,8.85
2023-05-20T21:42:22.946Z,8.93
2023-05-20T21:44:49.298Z,8.38
2023-05-20T21:47:15.817Z,8.38
2023-05-20T21:49:42.314Z,8.25
2023-05-20T21:52:08.725Z,8.45
2023-05-20T21:54:35.098Z,8.40
2023-05-20T21:57:01.510Z,8.40
2023-05-20T21:59:27.870Z,8.38
2023-05-20T22:01:54.271Z,8.70
2023-05-20T22:04:20.707Z,8.43
2023-05-20T22:06:47.059Z,8.05
2023-05-20T22:09:13.406Z,8.50
2023-05-20T22:11:39.812Z,8.52
2023-05-20T22:14:06.184Z,7.93
2023-05-20T22:16:32.578Z,8.70
2023-05-20T22:18:59.035Z,8.85
2023-05-20T22:21:25.754Z,8.18
2023-05-20T22:23:52.801Z,8.75
2023-05-20T22:26:19.201Z,8.52
2023-05-20T22:28:45.554Z,8.80
2023-05-20T22:31:11.930Z,8.63
2023-05-20T22:33:38.421Z,8.75
2023-05-20T22:36:04.788Z,8.85
2023-05-20T22:38:31.144Z,9.15
2023-05-20T22:40:57.590Z,8.68
2023-05-20T22:43:24.029Z,8.60
2023-05-20T22:45:50.448Z,8.57
2023-05-20T22:48:16.901Z,8.60
2023-05-20T22:50:43.243Z,8.57
2023-05-20T22:53:09.603Z,8.63
2023-05-20T22:55:36.239Z,8.68
2023-05-20T22:58:02.740Z,9.07
2023-05-20T23:00:29.098Z,8.68
2023-05-20T23:02:55.520Z,8.80
2023-05-20T23:05:21.903Z,9.27
2023-05-20T23:07:48.265Z,8.70
2023-05-20T23:10:14.704Z,8.85
2023-05-20T23:12:41.077Z,9.15
2023-05-20T23:15:07.435Z,8.55
2023-05-20T23:17:33.859Z,9.38
2023-05-20T23:20:00.262Z,9.02
2023-05-20T23:22:26.620Z,9.32
2023-05-20T23:24:53.023Z,8.75
2023-05-20T23:27:19.392Z,8.90
2023-05-20T23:29:45.787Z,8.95
2023-05-20T23:32:12.198Z,8.55
2023-05-20T23:34:38.535Z,8.73
2023-05-20T23:37:04.908Z,9.60
2023-05-20T23:39:31.308Z,9.27
2023-05-20T23:41:57.680Z,9.10
2023-05-20T23:44:24.069Z,8.82
2023-05-20T23:46:50.469Z,9.10
2023-05-20T23:49:16.811Z,9.45
2023-05-20T23:51:43.170Z,9.50
2023-05-20T23:54:09.580Z,8.93
2023-05-20T23:56:35.930Z,8.98
2023-05-20T23:59:02.303Z,8.90
